CDT,Max TemperatureF,Mean TemperatureF,Min TemperatureF,Max Dew PointF,MeanDew PointF,Min DewpointF,Max Humidity, Mean Humidity, Min Humidity, Max Sea Level PressureIn, Mean Sea Level PressureIn, Min Sea Level PressureIn, Max VisibilityMiles, Mean VisibilityMiles, Min VisibilityMiles, Max Wind SpeedMPH, Mean Wind SpeedMPH, Max Gust SpeedMPH,PrecipitationIn, CloudCover, Events, WindDirDegrees
2013-5-1,74,70,65,70,65,61,100,89,78,29.98,29.93,29.88,10,8,2,21,7,28,1.02,8,Rain-Thunderstorm,82
2013-5-2,69,67,64,66,64,62,100,97,93,30.02,29.99,29.92,10,6,2,12,6,16,0.44,8,Rain,40
2013-5-3,65,52,39,64,52,38,100,86,71,30.07,30.00,29.92,10,6,2,18,8,24,0.36,7,Rain,313
2013-5-4,71,54,37,50,41,37,93,62,31,30.05,29.97,29.86,10,8,1,17,6,24,T,2,,185
2013-5-5,63,53,42,48,42,39,93,71,49,30.05,30.00,29.94,10,10,10,17,7,23,0.00,4,,316
2013-5-6,71,61,50,57,51,44,100,77,53,30.04,30.01,29.96,10,9,2,13,5,18,0.00,5,,281
2013-5-7,77,62,47,60,52,46,100,75,50,30.09,30.03,29.98,10,5,0,10,2,14,0.00,1,Fog,343
2013-5-8,83,67,51,60,54,48,100,70,39,30.13,30.06,30.03,10,5,0,9,2,13,0.00,0,Fog,173
2013-5-9,82,69,55,67,60,54,100,77,54,30.14,30.07,30.01,10,7,1,15,6,22,0.51,1,Rain-Thunderstorm,178
2013-5-10,76,70,63,68,65,59,97,83,69,30.04,29.99,29.84,10,7,1,28,7,36,1.38,6,Rain-Thunderstorm,203
2013-5-11,78,66,54,66,63,54,100,80,60,30.11,30.04,29.97,10,8,2,15,4,17,0.01,4,Rain,359
2013-5-12,72,60,48,55,50,45,100,69,38,30.23,30.15,30.08,10,7,0,20,6,26,0.00,0,Fog,3
2013-5-13,78,61,44,56,46,43,100,66,31,30.33,30.24,30.20,10,7,0,9,3,13,0.00,0,Fog,158
2013-5-14,84,68,51,59,55,50,100,70,40,30.28,30.20,30.14,10,10,10,13,5,20,0.00,0,,193
2013-5-15,83,69,55,64,59,54,93,69,45,30.21,30.12,30.02,10,10,10,15,4,18,T,0,,191
2013-5-16,82,71,60,65,63,59,97,78,58,30.05,29.97,29.86,10,10,9,16,8,23,T,2,,169
2013-5-17,84,78,72,72,69,64,90,78,65,30.01,29.96,29.93,10,10,8,17,8,22,T,7,,189
2013-5-18,87,79,71,72,70,68,93,75,57,30.07,30.00,29.96,10,9,6,14,6,21,0.00,4,,184
2013-5-19,87,77,66,72,69,66,97,76,55,30.03,29.97,29.91,10,8,4,15,8,21,0.00,2,,174
2013-5-20,89,81,73,72,71,70,93,74,55,30.01,29.96,29.87,10,10,7,20,9,25,0.00,4,,176
2013-5-21,90,78,65,73,70,63,93,74,55,29.98,29.92,29.79,10,9,2,33,10,46,0.49,4,Rain-Thunderstorm,170
2013-5-22,82,73,64,70,67,63,100,85,69,29.97,29.94,29.91,10,7,0,22,6,28,0.22,2,Fog-Rain-Thunderstorm,172
2013-5-23,88,75,62,73,69,62,100,81,61,30.08,30.03,29.96,10,5,0,8,1,10,0.00,4,Fog,41
2013-5-24,83,74,65,70,65,58,100,78,55,30.25,30.14,30.06,10,6,0,14,6,20,0.00,2,Fog,39
2013-5-25,83,70,57,60,56,52,90,66,42,30.29,30.22,30.17,10,10,10,12,5,15,0.00,0,,109
2013-5-26,87,73,58,66,61,56,93,68,42,30.22,30.16,30.11,10,10,8,12,4,15,0.00,0,,142
2013-5-27,86,76,65,69,66,62,93,71,48,30.14,30.07,29.99,10,8,0,16,7,20,0.00,1,,162
2013-5-28,88,79,69,72,68,63,93,70,46,30.06,30.01,29.97,10,6,0,15,8,21,0.21,4,Fog-Rain-Thunderstorm,171
2013-5-29,87,76,65,74,68,63,100,81,61,30.04,29.99,29.94,10,6,0,25,8,32,0.06,1,Fog-Thunderstorm,149
2013-5-30,89,80,71,76,73,69,100,78,56,30.03,29.96,29.90,10,9,2,25,10,33,0.30,5,Rain-Thunderstorm,142
2013-5-31,90,82,74,76,73,71,94,77,59,30.03,29.96,29.89,10,9,2,22,9,40,0.08,5,Rain-Thunderstorm,159